sensor_id;sensor_type;location;lat;lon;timestamp;P1;durP1;ratioP1;P2;durP2;ratioP2
64225;SDS011;50545;56.064;26.178;2023-08-06T00:01:02;3.60;;;2.40;;
64225;SDS011;50545;56.064;26.178;2023-08-06T00:03:31;3.80;;;2.45;;
64225;SDS011;50545;56.064;26.178;2023-08-06T00:06:00;5.30;;;2.88;;
64225;SDS011;50545;56.064;26.178;2023-08-06T00:08:29;3.47;;;2.40;;
64225;SDS011;50545;56.064;26.178;2023-08-06T00:10:57;4.23;;;2.63;;
64225;SDS011;50545;56.064;26.178;2023-08-06T00:13:24;3.03;;;2.42;;
64225;SDS011;50545;56.064;26.178;2023-08-06T00:15:52;4.97;;;2.90;;
64225;SDS011;50545;56.064;26.178;2023-08-06T00:18:19;3.25;;;2.42;;
64225;SDS011;50545;56.064;26.178;2023-08-06T00:20:47;3.47;;;2.55;;
64225;SDS011;50545;56.064;26.178;2023-08-06T00:23:15;4.38;;;2.67;;
64225;SDS011;50545;56.064;26.178;2023-08-06T00:25:42;4.22;;;2.72;;
64225;SDS011;50545;56.064;26.178;2023-08-06T00:28:10;4.75;;;2.88;;
64225;SDS011;50545;56.064;26.178;2023-08-06T00:30:39;3.95;;;2.72;;
64225;SDS011;50545;56.064;26.178;2023-08-06T00:33:07;3.50;;;2.55;;
64225;SDS011;50545;56.064;26.178;2023-08-06T00:35:35;3.92;;;2.47;;
64225;SDS011;50545;56.064;26.178;2023-08-06T00:38:02;4.05;;;2.67;;
64225;SDS011;50545;56.064;26.178;2023-08-06T00:40:32;3.55;;;2.25;;
64225;SDS011;50545;56.064;26.178;2023-08-06T00:43:01;2.78;;;2.20;;
64225;SDS011;50545;56.064;26.178;2023-08-06T00:45:30;4.07;;;2.45;;
64225;SDS011;50545;56.064;26.178;2023-08-06T00:48:05;3.45;;;2.55;;
64225;SDS011;50545;56.064;26.178;2023-08-06T00:50:35;4.78;;;2.95;;
64225;SDS011;50545;56.064;26.178;2023-08-06T00:53:03;3.97;;;2.63;;
64225;SDS011;50545;56.064;26.178;2023-08-06T00:55:30;3.90;;;2.83;;
64225;SDS011;50545;56.064;26.178;2023-08-06T00:57:58;4.28;;;2.70;;
64225;SDS011;50545;56.064;26.178;2023-08-06T01:00:26;3.42;;;2.72;;
64225;SDS011;50545;56.064;26.178;2023-08-06T01:02:54;4.47;;;3.17;;
64225;SDS011;50545;56.064;26.178;2023-08-06T01:05:22;3.95;;;2.72;;
64225;SDS011;50545;56.064;26.178;2023-08-06T01:11:01;4.68;;;2.92;;
64225;SDS011;50545;56.064;26.178;2023-08-06T01:13:41;3.80;;;2.83;;
64225;SDS011;50545;56.064;26.178;2023-08-06T01:16:17;5.97;;;3.13;;
64225;SDS011;50545;56.064;26.178;2023-08-06T01:18:47;5.30;;;3.00;;
64225;SDS011;50545;56.064;26.178;2023-08-06T01:21:18;4.10;;;2.95;;
64225;SDS011;50545;56.064;26.178;2023-08-06T01:23:46;3.85;;;2.88;;
64225;SDS011;50545;56.064;26.178;2023-08-06T01:26:30;4.38;;;2.90;;
64225;SDS011;50545;56.064;26.178;2023-08-06T01:29:07;4.63;;;3.08;;
64225;SDS011;50545;56.064;26.178;2023-08-06T01:31:58;6.90;;;3.35;;
64225;SDS011;50545;56.064;26.178;2023-08-06T01:34:27;4.75;;;3.20;;
64225;SDS011;50545;56.064;26.178;2023-08-06T01:36:58;4.70;;;3.30;;
64225;SDS011;50545;56.064;26.178;2023-08-06T01:39:27;4.97;;;3.20;;
64225;SDS011;50545;56.064;26.178;2023-08-06T01:41:55;4.13;;;2.90;;
64225;SDS011;50545;56.064;26.178;2023-08-06T01:44:22;4.65;;;3.13;;
64225;SDS011;50545;56.064;26.178;2023-08-06T01:46:50;3.90;;;2.80;;
64225;SDS011;50545;56.064;26.178;2023-08-06T01:49:17;4.30;;;2.95;;
64225;SDS011;50545;56.064;26.178;2023-08-06T01:51:45;3.92;;;2.90;;
64225;SDS011;50545;56.064;26.178;2023-08-06T01:54:12;3.95;;;2.75;;
64225;SDS011;50545;56.064;26.178;2023-08-06T01:56:40;4.18;;;2.95;;
64225;SDS011;50545;56.064;26.178;2023-08-06T01:59:07;3.90;;;2.70;;
64225;SDS011;50545;56.064;26.178;2023-08-06T02:01:35;3.63;;;2.65;;
64225;SDS011;50545;56.064;26.178;2023-08-06T02:04:02;4.35;;;2.92;;
64225;SDS011;50545;56.064;26.178;2023-08-06T02:06:30;3.90;;;3.05;;
64225;SDS011;50545;56.064;26.178;2023-08-06T02:08:57;3.63;;;2.78;;
64225;SDS011;50545;56.064;26.178;2023-08-06T02:11:25;3.78;;;2.90;;
64225;SDS011;50545;56.064;26.178;2023-08-06T02:13:53;4.18;;;2.85;;
64225;SDS011;50545;56.064;26.178;2023-08-06T02:16:21;4.30;;;2.95;;
64225;SDS011;50545;56.064;26.178;2023-08-06T02:18:49;3.88;;;2.70;;
64225;SDS011;50545;56.064;26.178;2023-08-06T02:21:16;4.78;;;2.95;;
64225;SDS011;50545;56.064;26.178;2023-08-06T02:23:44;4.10;;;2.97;;
64225;SDS011;50545;56.064;26.178;2023-08-06T02:26:12;3.92;;;2.80;;
64225;SDS011;50545;56.064;26.178;2023-08-06T02:28:39;3.78;;;2.97;;
64225;SDS011;50545;56.064;26.178;2023-08-06T02:31:07;4.15;;;2.88;;
64225;SDS011;50545;56.064;26.178;2023-08-06T02:33:34;3.95;;;2.67;;
64225;SDS011;50545;56.064;26.178;2023-08-06T02:36:02;4.10;;;2.67;;
64225;SDS011;50545;56.064;26.178;2023-08-06T02:38:31;4.70;;;2.83;;
64225;SDS011;50545;56.064;26.178;2023-08-06T02:41:01;4.03;;;3.17;;
64225;SDS011;50545;56.064;26.178;2023-08-06T02:43:30;4.07;;;2.90;;
64225;SDS011;50545;56.064;26.178;2023-08-06T02:45:58;3.92;;;2.90;;
64225;SDS011;50545;56.064;26.178;2023-08-06T02:48:27;4.05;;;2.75;;
64225;SDS011;50545;56.064;26.178;2023-08-06T02:50:57;4.25;;;2.92;;
64225;SDS011;50545;56.064;26.178;2023-08-06T02:53:29;4.22;;;2.90;;
64225;SDS011;50545;56.064;26.178;2023-08-06T02:55:56;3.90;;;2.72;;
64225;SDS011;50545;56.064;26.178;2023-08-06T02:58:24;4.07;;;2.83;;
64225;SDS011;50545;56.064;26.178;2023-08-06T03:01:00;4.35;;;2.95;;
64225;SDS011;50545;56.064;26.178;2023-08-06T03:03:35;4.00;;;2.88;;
64225;SDS011;50545;56.064;26.178;2023-08-06T03:06:05;4.10;;;2.92;;
64225;SDS011;50545;56.064;26.178;2023-08-06T03:08:34;4.28;;;2.90;;
64225;SDS011;50545;56.064;26.178;2023-08-06T03:11:02;3.63;;;2.67;;
64225;SDS011;50545;56.064;26.178;2023-08-06T03:13:30;4.18;;;3.08;;
64225;SDS011;50545;56.064;26.178;2023-08-06T03:15:59;3.50;;;2.63;;
64225;SDS011;50545;56.064;26.178;2023-08-06T03:18:28;3.63;;;2.53;;
64225;SDS011;50545;56.064;26.178;2023-08-06T03:20:57;3.95;;;2.97;;
64225;SDS011;50545;56.064;26.178;2023-08-06T03:23:27;3.20;;;2.53;;
64225;SDS011;50545;56.064;26.178;2023-08-06T03:25:56;3.67;;;2.60;;
64225;SDS011;50545;56.064;26.178;2023-08-06T03:28:31;4.30;;;2.90;;
64225;SDS011;50545;56.064;26.178;2023-08-06T03:31:01;4.25;;;3.10;;
64225;SDS011;50545;56.064;26.178;2023-08-06T03:33:30;3.67;;;2.85;;
64225;SDS011;50545;56.064;26.178;2023-08-06T03:35:59;4.90;;;3.13;;
64225;SDS011;50545;56.064;26.178;2023-08-06T03:38:28;4.22;;;3.03;;
64225;SDS011;50545;56.064;26.178;2023-08-06T03:40:57;4.45;;;3.20;;
64225;SDS011;50545;56.064;26.178;2023-08-06T03:43:27;5.65;;;3.25;;
64225;SDS011;50545;56.064;26.178;2023-08-06T03:45:54;4.40;;;2.83;;
64225;SDS011;50545;56.064;26.178;2023-08-06T03:48:22;5.05;;;3.20;;
64225;SDS011;50545;56.064;26.178;2023-08-06T03:50:49;4.40;;;2.85;;
64225;SDS011;50545;56.064;26.178;2023-08-06T03:53:17;3.30;;;2.70;;
64225;SDS011;50545;56.064;26.178;2023-08-06T03:55:44;4.75;;;3.22;;
64225;SDS011;50545;56.064;26.178;2023-08-06T03:58:12;4.40;;;3.13;;
64225;SDS011;50545;56.064;26.178;2023-08-06T04:00:39;4.70;;;2.90;;
64225;SDS011;50545;56.064;26.178;2023-08-06T04:03:07;4.65;;;3.33;;
64225;SDS011;50545;56.064;26.178;2023-08-06T04:05:35;4.70;;;3.03;;
64225;SDS011;50545;56.064;26.178;2023-08-06T04:08:02;4.72;;;3.20;;
64225;SDS011;50545;56.064;26.178;2023-08-06T04:10:30;5.22;;;3.33;;
64225;SDS011;50545;56.064;26.178;2023-08-06T04:12:58;4.80;;;3.47;;
64225;SDS011;50545;56.064;26.178;2023-08-06T04:15:25;4.95;;;3.40;;
64225;SDS011;50545;56.064;26.178;2023-08-06T04:17:53;4.00;;;3.03;;
64225;SDS011;50545;56.064;26.178;2023-08-06T04:20:22;3.92;;;3.03;;
64225;SDS011;50545;56.064;26.178;2023-08-06T04:22:50;4.55;;;3.28;;
64225;SDS011;50545;56.064;26.178;2023-08-06T04:25:17;5.35;;;3.60;;
64225;SDS011;50545;56.064;26.178;2023-08-06T04:27:47;4.65;;;3.42;;
64225;SDS011;50545;56.064;26.178;2023-08-06T04:30:15;5.45;;;3.28;;
64225;SDS011;50545;56.064;26.178;2023-08-06T04:32:42;4.20;;;3.05;;
64225;SDS011;50545;56.064;26.178;2023-08-06T04:35:10;4.40;;;2.97;;
64225;SDS011;50545;56.064;26.178;2023-08-06T04:37:37;5.03;;;3.22;;
64225;SDS011;50545;56.064;26.178;2023-08-06T04:40:05;5.35;;;2.92;;
64225;SDS011;50545;56.064;26.178;2023-08-06T04:42:33;5.43;;;3.50;;
64225;SDS011;50545;56.064;26.178;2023-08-06T04:45:01;4.40;;;3.05;;
64225;SDS011;50545;56.064;26.178;2023-08-06T04:47:28;5.13;;;3.50;;
64225;SDS011;50545;56.064;26.178;2023-08-06T04:49:56;7.05;;;4.13;;
64225;SDS011;50545;56.064;26.178;2023-08-06T04:52:24;4.63;;;3.38;;
64225;SDS011;50545;56.064;26.178;2023-08-06T04:54:54;6.07;;;3.75;;
64225;SDS011;50545;56.064;26.178;2023-08-06T04:57:22;4.88;;;3.55;;
64225;SDS011;50545;56.064;26.178;2023-08-06T04:59:50;4.47;;;3.28;;
64225;SDS011;50545;56.064;26.178;2023-08-06T05:02:17;6.00;;;4.00;;
64225;SDS011;50545;56.064;26.178;2023-08-06T05:04:45;4.68;;;3.13;;
64225;SDS011;50545;56.064;26.178;2023-08-06T05:07:12;6.00;;;4.40;;
64225;SDS011;50545;56.064;26.178;2023-08-06T05:09:40;6.13;;;4.13;;
64225;SDS011;50545;56.064;26.178;2023-08-06T05:12:07;5.57;;;3.88;;
64225;SDS011;50545;56.064;26.178;2023-08-06T05:14:36;5.53;;;3.92;;
64225;SDS011;50545;56.064;26.178;2023-08-06T05:17:03;5.43;;;3.78;;
64225;SDS011;50545;56.064;26.178;2023-08-06T05:19:31;5.72;;;3.85;;
64225;SDS011;50545;56.064;26.178;2023-08-06T05:21:59;4.85;;;3.67;;
64225;SDS011;50545;56.064;26.178;2023-08-06T05:24:27;7.22;;;4.43;;
64225;SDS011;50545;56.064;26.178;2023-08-06T05:26:55;6.35;;;4.28;;
64225;SDS011;50545;56.064;26.178;2023-08-06T05:29:22;6.30;;;4.43;;
64225;SDS011;50545;56.064;26.178;2023-08-06T05:31:50;6.60;;;4.07;;
64225;SDS011;50545;56.064;26.178;2023-08-06T05:34:18;6.88;;;4.80;;
64225;SDS011;50545;56.064;26.178;2023-08-06T05:36:45;6.85;;;5.05;;
64225;SDS011;50545;56.064;26.178;2023-08-06T05:39:13;6.45;;;4.53;;
64225;SDS011;50545;56.064;26.178;2023-08-06T05:41:40;6.63;;;4.88;;
64225;SDS011;50545;56.064;26.178;2023-08-06T05:44:08;7.05;;;5.10;;
64225;SDS011;50545;56.064;26.178;2023-08-06T05:46:35;8.82;;;6.82;;
64225;SDS011;50545;56.064;26.178;2023-08-06T05:49:03;7.70;;;6.15;;
64225;SDS011;50545;56.064;26.178;2023-08-06T05:51:31;7.40;;;5.88;;
64225;SDS011;50545;56.064;26.178;2023-08-06T05:53:59;6.50;;;5.00;;
64225;SDS011;50545;56.064;26.178;2023-08-06T05:56:26;6.25;;;4.80;;
64225;SDS011;50545;56.064;26.178;2023-08-06T05:58:53;8.57;;;6.50;;
64225;SDS011;50545;56.064;26.178;2023-08-06T06:01:21;7.00;;;5.35;;
64225;SDS011;50545;56.064;26.178;2023-08-06T06:03:48;8.57;;;6.15;;
64225;SDS011;50545;56.064;26.178;2023-08-06T06:06:16;7.55;;;5.57;;
64225;SDS011;50545;56.064;26.178;2023-08-06T06:08:44;9.38;;;5.85;;
64225;SDS011;50545;56.064;26.178;2023-08-06T06:11:12;7.38;;;4.55;;
64225;SDS011;50545;56.064;26.178;2023-08-06T06:13:40;6.43;;;4.60;;
64225;SDS011;50545;56.064;26.178;2023-08-06T06:16:07;6.50;;;4.68;;
64225;SDS011;50545;56.064;26.178;2023-08-06T06:18:35;6.15;;;4.57;;
64225;SDS011;50545;56.064;26.178;2023-08-06T06:21:02;6.80;;;4.90;;
64225;SDS011;50545;56.064;26.178;2023-08-06T06:23:29;6.18;;;4.60;;
64225;SDS011;50545;56.064;26.178;2023-08-06T06:25:57;8.18;;;5.18;;
64225;SDS011;50545;56.064;26.178;2023-08-06T06:28:25;9.27;;;6.07;;
64225;SDS011;50545;56.064;26.178;2023-08-06T06:30:52;8.70;;;6.10;;
64225;SDS011;50545;56.064;26.178;2023-08-06T06:33:20;8.02;;;5.35;;
64225;SDS011;50545;56.064;26.178;2023-08-06T06:35:47;7.85;;;5.72;;
64225;SDS011;50545;56.064;26.178;2023-08-06T06:38:16;8.30;;;5.97;;
64225;SDS011;50545;56.064;26.178;2023-08-06T06:40:43;8.23;;;5.55;;
64225;SDS011;50545;56.064;26.178;2023-08-06T06:43:11;8.27;;;4.78;;
64225;SDS011;50545;56.064;26.178;2023-08-06T06:45:38;7.35;;;5.60;;
64225;SDS011;50545;56.064;26.178;2023-08-06T06:48:05;7.47;;;6.03;;
64225;SDS011;50545;56.064;26.178;2023-08-06T06:50:33;10.70;;;7.20;;
64225;SDS011;50545;56.064;26.178;2023-08-06T06:53:03;8.35;;;5.95;;
64225;SDS011;50545;56.064;26.178;2023-08-06T06:55:30;9.40;;;6.57;;
64225;SDS011;50545;56.064;26.178;2023-08-06T06:57:58;9.30;;;7.55;;
64225;SDS011;50545;56.064;26.178;2023-08-06T07:00:25;10.43;;;7.78;;
64225;SDS011;50545;56.064;26.178;2023-08-06T07:02:52;9.35;;;7.18;;
64225;SDS011;50545;56.064;26.178;2023-08-06T07:05:20;9.95;;;7.25;;
64225;SDS011;50545;56.064;26.178;2023-08-06T07:07:48;12.68;;;9.05;;
64225;SDS011;50545;56.064;26.178;2023-08-06T07:10:15;10.90;;;8.52;;
64225;SDS011;50545;56.064;26.178;2023-08-06T07:12:43;12.50;;;9.43;;
64225;SDS011;50545;56.064;26.178;2023-08-06T07:15:10;12.15;;;9.45;;
64225;SDS011;50545;56.064;26.178;2023-08-06T07:17:38;13.15;;;8.27;;
64225;SDS011;50545;56.064;26.178;2023-08-06T07:20:06;13.43;;;8.90;;
64225;SDS011;50545;56.064;26.178;2023-08-06T07:22:34;10.48;;;7.90;;
64225;SDS011;50545;56.064;26.178;2023-08-06T07:25:02;10.73;;;8.10;;
64225;SDS011;50545;56.064;26.178;2023-08-06T07:27:30;11.50;;;8.55;;
64225;SDS011;50545;56.064;26.178;2023-08-06T07:29:58;14.88;;;10.30;;
64225;SDS011;50545;56.064;26.178;2023-08-06T07:32:26;13.65;;;10.93;;
64225;SDS011;50545;56.064;26.178;2023-08-06T07:34:54;9.93;;;8.02;;
64225;SDS011;50545;56.064;26.178;2023-08-06T07:37:26;13.32;;;9.82;;
64225;SDS011;50545;56.064;26.178;2023-08-06T07:39:57;11.50;;;8.50;;
64225;SDS011;50545;56.064;26.178;2023-08-06T07:42:25;13.77;;;10.35;;
64225;SDS011;50545;56.064;26.178;2023-08-06T07:44:53;16.40;;;11.73;;
64225;SDS011;50545;56.064;26.178;2023-08-06T07:47:22;12.98;;;9.00;;
64225;SDS011;50545;56.064;26.178;2023-08-06T07:49:50;11.80;;;9.15;;
64225;SDS011;50545;56.064;26.178;2023-08-06T07:52:17;10.40;;;8.07;;
64225;SDS011;50545;56.064;26.178;2023-08-06T07:54:45;10.80;;;8.13;;
64225;SDS011;50545;56.064;26.178;2023-08-06T07:57:12;12.55;;;9.27;;
64225;SDS011;50545;56.064;26.178;2023-08-06T07:59:41;10.18;;;7.72;;
64225;SDS011;50545;56.064;26.178;2023-08-06T08:02:09;11.80;;;9.77;;
64225;SDS011;50545;56.064;26.178;2023-08-06T08:04:36;11.45;;;9.05;;
64225;SDS011;50545;56.064;26.178;2023-08-06T08:07:04;15.68;;;10.50;;
64225;SDS011;50545;56.064;26.178;2023-08-06T08:09:32;11.45;;;8.98;;
64225;SDS011;50545;56.064;26.178;2023-08-06T08:12:01;15.25;;;10.25;;
64225;SDS011;50545;56.064;26.178;2023-08-06T08:14:29;11.02;;;8.52;;
64225;SDS011;50545;56.064;26.178;2023-08-06T08:17:03;12.25;;;9.18;;
64225;SDS011;50545;56.064;26.178;2023-08-06T08:19:32;10.40;;;7.93;;
64225;SDS011;50545;56.064;26.178;2023-08-06T08:21:59;11.35;;;8.60;;
64225;SDS011;50545;56.064;26.178;2023-08-06T08:24:27;12.70;;;9.15;;
64225;SDS011;50545;56.064;26.178;2023-08-06T08:26:56;11.55;;;8.77;;
64225;SDS011;50545;56.064;26.178;2023-08-06T08:29:23;11.88;;;8.75;;
64225;SDS011;50545;56.064;26.178;2023-08-06T08:31:51;11.80;;;7.85;;
64225;SDS011;50545;56.064;26.178;2023-08-06T08:34:19;14.38;;;10.82;;
64225;SDS011;50545;56.064;26.178;2023-08-06T08:36:47;11.48;;;8.93;;
64225;SDS011;50545;56.064;26.178;2023-08-06T08:39:14;11.90;;;8.73;;
64225;SDS011;50545;56.064;26.178;2023-08-06T08:41:41;8.88;;;6.72;;
64225;SDS011;50545;56.064;26.178;2023-08-06T08:44:09;9.52;;;7.15;;
64225;SDS011;50545;56.064;26.178;2023-08-06T08:46:38;8.73;;;6.85;;
64225;SDS011;50545;56.064;26.178;2023-08-06T08:51:35;10.10;;;6.93;;
64225;SDS011;50545;56.064;26.178;2023-08-06T08:54:03;10.77;;;8.60;;
64225;SDS011;50545;56.064;26.178;2023-08-06T08:56:31;11.40;;;9.35;;
64225;SDS011;50545;56.064;26.178;2023-08-06T08:58:58;10.43;;;7.88;;
64225;SDS011;50545;56.064;26.178;2023-08-06T09:01:26;9.52;;;7.55;;
64225;SDS011;50545;56.064;26.178;2023-08-06T09:03:55;11.95;;;7.43;;
64225;SDS011;50545;56.064;26.178;2023-08-06T09:06:25;9.07;;;7.18;;
64225;SDS011;50545;56.064;26.178;2023-08-06T09:08:57;9.88;;;6.97;;
64225;SDS011;50545;56.064;26.178;2023-08-06T09:11:37;9.32;;;6.40;;
64225;SDS011;50545;56.064;26.178;2023-08-06T09:14:15;8.93;;;6.57;;
64225;SDS011;50545;56.064;26.178;2023-08-06T09:16:43;6.75;;;5.80;;
64225;SDS011;50545;56.064;26.178;2023-08-06T09:19:12;8.82;;;6.95;;
64225;SDS011;50545;56.064;26.178;2023-08-06T09:21:42;8.68;;;6.18;;
64225;SDS011;50545;56.064;26.178;2023-08-06T09:24:10;7.45;;;5.68;;
64225;SDS011;50545;56.064;26.178;2023-08-06T09:26:39;8.40;;;6.43;;
64225;SDS011;50545;56.064;26.178;2023-08-06T09:29:08;13.25;;;9.93;;
64225;SDS011;50545;56.064;26.178;2023-08-06T09:34:17;10.48;;;7.40;;
64225;SDS011;50545;56.064;26.178;2023-08-06T09:36:49;9.70;;;7.47;;
64225;SDS011;50545;56.064;26.178;2023-08-06T09:39:21;8.60;;;6.57;;
64225;SDS011;50545;56.064;26.178;2023-08-06T09:41:56;10.15;;;7.45;;
64225;SDS011;50545;56.064;26.178;2023-08-06T09:44:30;9.90;;;8.45;;
64225;SDS011;50545;56.064;26.178;2023-08-06T09:46:59;12.25;;;7.95;;
64225;SDS011;50545;56.064;26.178;2023-08-06T09:49:39;11.90;;;9.18;;
64225;SDS011;50545;56.064;26.178;2023-08-06T09:52:10;12.00;;;9.20;;
64225;SDS011;50545;56.064;26.178;2023-08-06T09:54:39;8.65;;;6.18;;
64225;SDS011;50545;56.064;26.178;2023-08-06T09:57:06;11.25;;;8.27;;
64225;SDS011;50545;56.064;26.178;2023-08-06T09:59:35;7.75;;;5.85;;
64225;SDS011;50545;56.064;26.178;2023-08-06T10:02:07;7.28;;;5.50;;
64225;SDS011;50545;56.064;26.178;2023-08-06T10:04:39;9.20;;;7.30;;
64225;SDS011;50545;56.064;26.178;2023-08-06T10:07:10;9.32;;;7.18;;
64225;SDS011;50545;56.064;26.178;2023-08-06T10:09:38;11.63;;;9.27;;
64225;SDS011;50545;56.064;26.178;2023-08-06T10:12:06;11.60;;;8.60;;
64225;SDS011;50545;56.064;26.178;2023-08-06T10:14:34;10.85;;;8.07;;
64225;SDS011;50545;56.064;26.178;2023-08-06T10:17:04;10.25;;;7.32;;
64225;SDS011;50545;56.064;26.178;2023-08-06T10:19:33;10.63;;;7.88;;
64225;SDS011;50545;56.064;26.178;2023-08-06T10:22:14;12.43;;;10.10;;
64225;SDS011;50545;56.064;26.178;2023-08-06T10:27:34;9.27;;;6.30;;
64225;SDS011;50545;56.064;26.178;2023-08-06T10:30:23;10.05;;;7.88;;
64225;SDS011;50545;56.064;26.178;2023-08-06T10:32:58;7.72;;;6.18;;
64225;SDS011;50545;56.064;26.178;2023-08-06T10:35:30;9.35;;;6.90;;
64225;SDS011;50545;56.064;26.178;2023-08-06T10:38:08;8.57;;;6.18;;
64225;SDS011;50545;56.064;26.178;2023-08-06T10:54:25;9.05;;;7.85;;
64225;SDS011;50545;56.064;26.178;2023-08-06T10:56:52;9.23;;;6.72;;
64225;SDS011;50545;56.064;26.178;2023-08-06T10:59:20;8.40;;;5.70;;
64225;SDS011;50545;56.064;26.178;2023-08-06T11:01:47;10.80;;;7.18;;
64225;SDS011;50545;56.064;26.178;2023-08-06T11:04:15;11.52;;;7.60;;
64225;SDS011;50545;56.064;26.178;2023-08-06T11:06:43;8.27;;;6.55;;
64225;SDS011;50545;56.064;26.178;2023-08-06T11:09:11;8.68;;;6.40;;
64225;SDS011;50545;56.064;26.178;2023-08-06T11:11:38;11.43;;;8.60;;
64225;SDS011;50545;56.064;26.178;2023-08-06T11:14:06;7.03;;;4.57;;
64225;SDS011;50545;56.064;26.178;2023-08-06T11:16:33;8.15;;;5.95;;
64225;SDS011;50545;56.064;26.178;2023-08-06T11:19:02;10.52;;;7.93;;
64225;SDS011;50545;56.064;26.178;2023-08-06T11:21:29;7.97;;;4.90;;
64225;SDS011;50545;56.064;26.178;2023-08-06T11:23:57;8.32;;;6.63;;
64225;SDS011;50545;56.064;26.178;2023-08-06T11:26:25;9.75;;;6.28;;
64225;SDS011;50545;56.064;26.178;2023-08-06T11:28:54;8.35;;;6.07;;
64225;SDS011;50545;56.064;26.178;2023-08-06T11:31:21;7.15;;;5.68;;
64225;SDS011;50545;56.064;26.178;2023-08-06T11:33:53;9.48;;;6.68;;
64225;SDS011;50545;56.064;26.178;2023-08-06T11:36:34;9.32;;;7.13;;
64225;SDS011;50545;56.064;26.178;2023-08-06T11:39:06;9.13;;;6.72;;
64225;SDS011;50545;56.064;26.178;2023-08-06T11:41:35;9.60;;;7.43;;
64225;SDS011;50545;56.064;26.178;2023-08-06T11:46:53;7.70;;;5.97;;
64225;SDS011;50545;56.064;26.178;2023-08-06T11:52:18;11.35;;;7.88;;
64225;SDS011;50545;56.064;26.178;2023-08-06T11:54:47;11.23;;;7.45;;
64225;SDS011;50545;56.064;26.178;2023-08-06T11:57:38;9.93;;;7.60;;
64225;SDS011;50545;56.064;26.178;2023-08-06T12:00:10;9.65;;;6.55;;
64225;SDS011;50545;56.064;26.178;2023-08-06T12:02:41;7.45;;;5.85;;
64225;SDS011;50545;56.064;26.178;2023-08-06T12:07:43;8.35;;;6.15;;
64225;SDS011;50545;56.064;26.178;2023-08-06T12:10:13;10.15;;;7.93;;
64225;SDS011;50545;56.064;26.178;2023-08-06T12:12:41;8.68;;;6.40;;
64225;SDS011;50545;56.064;26.178;2023-08-06T12:15:09;8.50;;;6.32;;
64225;SDS011;50545;56.064;26.178;2023-08-06T12:17:37;7.85;;;6.05;;
64225;SDS011;50545;56.064;26.178;2023-08-06T12:20:05;9.02;;;6.75;;
64225;SDS011;50545;56.064;26.178;2023-08-06T12:22:34;5.75;;;4.55;;
64225;SDS011;50545;56.064;26.178;2023-08-06T12:25:03;10.02;;;7.50;;
64225;SDS011;50545;56.064;26.178;2023-08-06T12:27:35;8.05;;;5.95;;
64225;SDS011;50545;56.064;26.178;2023-08-06T12:30:03;10.82;;;6.80;;
64225;SDS011;50545;56.064;26.178;2023-08-06T12:32:32;11.25;;;6.80;;
64225;SDS011;50545;56.064;26.178;2023-08-06T12:35:00;8.60;;;6.82;;
64225;SDS011;50545;56.064;26.178;2023-08-06T12:37:28;9.40;;;7.25;;
64225;SDS011;50545;56.064;26.178;2023-08-06T12:39:55;8.80;;;6.70;;
64225;SDS011;50545;56.064;26.178;2023-08-06T12:42:23;8.35;;;6.70;;
64225;SDS011;50545;56.064;26.178;2023-08-06T12:44:51;9.40;;;7.03;;
64225;SDS011;50545;56.064;26.178;2023-08-06T12:47:18;8.27;;;6.65;;
64225;SDS011;50545;56.064;26.178;2023-08-06T12:49:46;9.73;;;7.07;;
64225;SDS011;50545;56.064;26.178;2023-08-06T12:52:14;8.60;;;6.43;;
64225;SDS011;50545;56.064;26.178;2023-08-06T12:54:42;8.80;;;6.05;;
64225;SDS011;50545;56.064;26.178;2023-08-06T12:57:09;10.07;;;7.25;;
64225;SDS011;50545;56.064;26.178;2023-08-06T12:59:37;8.93;;;6.10;;
64225;SDS011;50545;56.064;26.178;2023-08-06T13:02:04;8.68;;;6.88;;
64225;SDS011;50545;56.064;26.178;2023-08-06T13:04:31;6.93;;;4.78;;
64225;SDS011;50545;56.064;26.178;2023-08-06T13:07:00;8.02;;;6.45;;
64225;SDS011;50545;56.064;26.178;2023-08-06T13:09:28;8.93;;;6.32;;
64225;SDS011;50545;56.064;26.178;2023-08-06T13:14:26;6.88;;;4.95;;
64225;SDS011;50545;56.064;26.178;2023-08-06T13:16:55;8.82;;;6.57;;
64225;SDS011;50545;56.064;26.178;2023-08-06T13:19:23;7.50;;;6.03;;
64225;SDS011;50545;56.064;26.178;2023-08-06T13:24:18;7.25;;;5.47;;
64225;SDS011;50545;56.064;26.178;2023-08-06T13:26:46;8.43;;;6.60;;
64225;SDS011;50545;56.064;26.178;2023-08-06T13:29:13;8.48;;;6.30;;
64225;SDS011;50545;56.064;26.178;2023-08-06T13:31:41;8.60;;;6.45;;
64225;SDS011;50545;56.064;26.178;2023-08-06T13:34:08;8.23;;;6.35;;
64225;SDS011;50545;56.064;26.178;2023-08-06T13:36:36;8.05;;;6.20;;
64225;SDS011;50545;56.064;26.178;2023-08-06T13:39:03;6.97;;;5.13;;
64225;SDS011;50545;56.064;26.178;2023-08-06T13:41:31;8.95;;;6.75;;
64225;SDS011;50545;56.064;26.178;2023-08-06T13:43:59;7.97;;;6.28;;
64225;SDS011;50545;56.064;26.178;2023-08-06T13:46:26;8.02;;;6.15;;
64225;SDS011;50545;56.064;26.178;2023-08-06T13:48:54;11.88;;;7.50;;
64225;SDS011;50545;56.064;26.178;2023-08-06T13:51:22;7.40;;;5.55;;
64225;SDS011;50545;56.064;26.178;2023-08-06T13:53:49;10.60;;;7.97;;
64225;SDS011;50545;56.064;26.178;2023-08-06T13:56:19;8.18;;;6.72;;
64225;SDS011;50545;56.064;26.178;2023-08-06T13:58:46;8.65;;;6.22;;
64225;SDS011;50545;56.064;26.178;2023-08-06T14:01:13;8.52;;;6.10;;
64225;SDS011;50545;56.064;26.178;2023-08-06T14:03:45;6.97;;;5.40;;
64225;SDS011;50545;56.064;26.178;2023-08-06T14:06:13;8.35;;;6.63;;
64225;SDS011;50545;56.064;26.178;2023-08-06T14:08:40;8.15;;;5.78;;
64225;SDS011;50545;56.064;26.178;2023-08-06T14:11:07;9.18;;;7.18;;
64225;SDS011;50545;56.064;26.178;2023-08-06T14:13:37;9.07;;;6.30;;
64225;SDS011;50545;56.064;26.178;2023-08-06T14:16:04;9.52;;;6.80;;
64225;SDS011;50545;56.064;26.178;2023-08-06T14:18:32;9.63;;;7.57;;
64225;SDS011;50545;56.064;26.178;2023-08-06T14:21:01;7.57;;;4.50;;
64225;SDS011;50545;56.064;26.178;2023-08-06T14:23:29;7.57;;;6.15;;
64225;SDS011;50545;56.064;26.178;2023-08-06T14:25:56;8.88;;;5.63;;
64225;SDS011;50545;56.064;26.178;2023-08-06T14:28:24;7.93;;;5.40;;
64225;SDS011;50545;56.064;26.178;2023-08-06T14:30:51;7.80;;;6.40;;
64225;SDS011;50545;56.064;26.178;2023-08-06T14:33:23;9.18;;;7.10;;
64225;SDS011;50545;56.064;26.178;2023-08-06T14:38:23;10.98;;;7.22;;
64225;SDS011;50545;56.064;26.178;2023-08-06T14:40:50;7.68;;;5.65;;
64225;SDS011;50545;56.064;26.178;2023-08-06T14:43:17;8.15;;;5.78;;
64225;SDS011;50545;56.064;26.178;2023-08-06T14:45:45;7.90;;;6.22;;
64225;SDS011;50545;56.064;26.178;2023-08-06T14:48:12;7.20;;;5.00;;
64225;SDS011;50545;56.064;26.178;2023-08-06T14:50:40;9.40;;;7.40;;
64225;SDS011;50545;56.064;26.178;2023-08-06T14:53:07;8.07;;;6.53;;
64225;SDS011;50545;56.064;26.178;2023-08-06T14:55:37;9.07;;;6.00;;
64225;SDS011;50545;56.064;26.178;2023-08-06T14:58:04;9.10;;;6.82;;
64225;SDS011;50545;56.064;26.178;2023-08-06T15:00:32;8.13;;;6.50;;
64225;SDS011;50545;56.064;26.178;2023-08-06T15:02:59;8.82;;;6.82;;
64225;SDS011;50545;56.064;26.178;2023-08-06T15:05:27;8.57;;;6.53;;
64225;SDS011;50545;56.064;26.178;2023-08-06T15:07:54;9.50;;;7.53;;
64225;SDS011;50545;56.064;26.178;2023-08-06T15:10:22;7.70;;;5.80;;
64225;SDS011;50545;56.064;26.178;2023-08-06T15:12:53;8.80;;;6.88;;
64225;SDS011;50545;56.064;26.178;2023-08-06T15:15:21;9.63;;;7.05;;
64225;SDS011;50545;56.064;26.178;2023-08-06T15:17:49;9.60;;;7.30;;
64225;SDS011;50545;56.064;26.178;2023-08-06T15:20:16;10.52;;;7.03;;